Time;durP1;ratioP1;P1;durP2;ratioP2;P2;SDS_P1;SDS_P2;PMS_P1;PMS_P2;Temp;Humidity;BMP_temperature;BMP_pressure;BME280_temperature;BME280_humidity;BME280_pressure;Samples;Min_cycle;Max_cycle;Signal;HPM_P1;HPM_P2
2021/07/02 00:00:07;;;;;;;5.87;5.33;;;17.30;99.90;;;;;;10504489;28;20307;-80
2021/07/02 00:05:11;;;;;;;5.67;5.17;;;17.30;99.90;;;;;;10511862;28;20224;-80
2021/07/02 00:10:14;;;;;;;5.77;5.33;;;17.30;99.90;;;;;;10483070;28;20254;-80
2021/07/02 00:15:16;;;;;;;5.97;5.47;;;17.30;99.90;;;;;;10505425;28;20228;-82
2021/07/02 00:20:19;;;;;;;6.80;6.20;;;17.30;99.90;;;;;;10503792;28;20644;-81
2021/07/02 00:25:22;;;;;;;6.53;6.03;;;17.30;99.90;;;;;;10508323;28;20358;-81
2021/07/02 00:30:24;;;;;;;6.80;6.10;;;17.20;99.90;;;;;;10504269;28;20283;-80
2021/07/02 00:35:27;;;;;;;6.07;5.57;;;17.20;99.90;;;;;;10506560;28;20589;-81
2021/07/02 00:40:30;;;;;;;5.90;5.40;;;17.30;99.90;;;;;;10527595;28;20227;-82
2021/07/02 00:45:33;;;;;;;6.17;5.67;;;17.30;99.90;;;;;;10516977;28;20258;-82
2021/07/02 00:50:36;;;;;;;7.13;6.40;;;17.30;99.90;;;;;;10524849;28;20207;-80
2021/07/02 00:55:39;;;;;;;7.17;6.47;;;17.20;99.90;;;;;;10549845;28;20227;-80
2021/07/02 01:00:42;;;;;;;6.53;6.03;;;17.20;99.90;;;;;;10538006;28;20593;-81
2021/07/02 01:05:45;;;;;;;6.43;5.93;;;17.10;99.90;;;;;;10536539;28;20644;-81
2021/07/02 01:10:49;;;;;;;7.87;7.27;;;17.10;99.90;;;;;;10507860;28;20679;-81
2021/07/02 01:15:55;;;;;;;7.60;7.00;;;17.00;99.90;;;;;;10532361;28;20224;-82
2021/07/02 01:21:00;;;;;;;7.07;6.47;;;17.00;99.90;;;;;;10538067;28;20216;-81
2021/07/02 01:26:04;;;;;;;7.00;6.40;;;17.00;99.90;;;;;;10529516;28;20220;-81
2021/07/02 01:31:06;;;;;;;7.77;7.10;;;17.10;99.90;;;;;;10534887;28;20249;-82
2021/07/02 01:36:16;;;;;;;7.70;7.10;;;17.10;99.90;;;;;;10522979;28;20285;-82
2021/07/02 01:41:20;;;;;;;8.17;5.90;;;17.20;99.90;;;;;;10536627;28;20299;-80
2021/07/02 01:46:23;;;;;;;10.33;7.20;;;17.20;99.90;;;;;;10533915;28;20289;-80
2021/07/02 01:51:27;;;;;;;7.63;6.97;;;17.20;99.90;;;;;;10534638;28;20563;-80
2021/07/02 01:56:30;;;;;;;7.50;6.37;;;17.20;99.90;;;;;;10537461;28;20254;-80
2021/07/02 02:01:32;;;;;;;7.20;6.60;;;17.20;99.90;;;;;;10544932;28;20255;-80
2021/07/02 02:06:41;;;;;;;6.77;5.63;;;17.20;99.90;;;;;;10544447;28;20223;-81
2021/07/02 02:11:44;;;;;;;7.10;6.40;;;17.20;99.90;;;;;;10543479;28;20574;-82
2021/07/02 02:16:51;;;;;;;7.27;6.60;;;17.20;99.90;;;;;;10519280;28;20236;-80
2021/07/02 02:21:57;;;;;;;6.43;5.83;;;17.10;99.90;;;;;;10536834;28;20617;-81
2021/07/02 02:26:59;;;;;;;7.17;6.57;;;17.00;99.90;;;;;;10525982;28;20699;-80
2021/07/02 02:32:02;;;;;;;7.30;6.70;;;17.00;99.90;;;;;;10512120;28;20667;-81
2021/07/02 02:37:06;;;;;;;7.40;6.70;;;16.90;99.90;;;;;;10535971;28;20350;-80
2021/07/02 02:42:10;;;;;;;7.63;6.90;;;16.90;99.90;;;;;;10541937;28;20265;-81
2021/07/02 02:47:12;;;;;;;7.00;6.40;;;16.80;99.90;;;;;;10543098;28;20219;-80
2021/07/02 02:52:16;;;;;;;7.40;6.70;;;16.80;99.90;;;;;;10509966;28;20647;-81
2021/07/02 02:57:18;;;;;;;7.07;6.40;;;16.70;99.90;;;;;;10539807;28;20214;-82
2021/07/02 03:02:24;;;;;;;7.30;6.70;;;16.70;99.90;;;;;;10543054;28;20211;-81
2021/07/02 03:07:32;;;;;;;7.67;7.00;;;16.70;99.90;;;;;;10519269;28;20291;-81
2021/07/02 03:12:35;;;;;;;7.40;6.60;;;16.70;99.90;;;;;;10542101;28;20809;-81
2021/07/02 03:17:38;;;;;;;6.93;6.33;;;16.60;99.90;;;;;;10514369;28;20238;-80
2021/07/02 03:22:44;;;;;;;7.83;6.60;;;16.50;99.90;;;;;;10542039;28;20211;-80
2021/07/02 03:27:46;;;;;;;7.47;6.87;;;16.40;99.90;;;;;;10540122;28;20660;-80
2021/07/02 03:32:48;;;;;;;11.43;7.57;;;16.30;99.90;;;;;;10549119;28;20234;-80
2021/07/02 03:37:54;;;;;;;7.70;6.83;;;16.20;99.90;;;;;;10552082;28;20224;-80
2021/07/02 03:42:56;;;;;;;8.27;7.47;;;16.20;99.90;;;;;;10535995;28;20235;-82
2021/07/02 03:48:00;;;;;;;7.53;6.30;;;16.20;99.90;;;;;;10520315;28;20604;-82
2021/07/02 03:53:06;;;;;;;7.27;6.57;;;16.10;99.90;;;;;;10524690;28;20234;-80
2021/07/02 03:58:08;;;;;;;7.00;6.47;;;16.10;99.90;;;;;;10542481;28;20683;-81
2021/07/02 04:03:10;;;;;;;8.10;7.40;;;16.00;99.90;;;;;;10514590;28;20224;-81
2021/07/02 04:08:14;;;;;;;8.60;7.73;;;16.00;99.90;;;;;;10514372;28;20200;-81
2021/07/02 04:13:16;;;;;;;7.50;6.90;;;16.00;99.90;;;;;;10535346;28;20227;-80
2021/07/02 04:18:18;;;;;;;8.20;7.40;;;16.10;99.90;;;;;;10498919;28;20232;-80
2021/07/02 04:23:22;;;;;;;7.33;6.63;;;16.20;99.90;;;;;;10536144;28;20351;-81
2021/07/02 04:28:24;;;;;;;9.10;8.20;;;16.30;99.90;;;;;;10532955;28;20203;-81
2021/07/02 04:33:26;;;;;;;8.37;7.67;;;16.40;99.90;;;;;;10538153;28;20234;-81
2021/07/02 04:38:29;;;;;;;7.80;7.20;;;16.50;99.90;;;;;;10529748;28;20231;-80
2021/07/02 04:43:31;;;;;;;9.87;7.27;;;16.70;99.90;;;;;;10527140;28;20290;-80
2021/07/02 04:48:34;;;;;;;7.83;7.13;;;16.80;99.90;;;;;;10535844;28;20578;-81
2021/07/02 04:53:43;;;;;;;7.20;6.60;;;17.00;99.90;;;;;;10536976;28;20278;-80
2021/07/02 04:58:51;;;;;;;7.87;7.17;;;17.20;99.90;;;;;;10530733;28;20275;-81
2021/07/02 05:03:53;;;;;;;7.40;6.40;;;17.30;99.90;;;;;;10537767;28;20783;-81
2021/07/02 05:08:57;;;;;;;9.23;7.20;;;17.40;99.90;;;;;;10523974;28;20643;-80
2021/07/02 05:13:59;;;;;;;7.83;7.13;;;17.50;99.90;;;;;;10533693;28;20279;-82
2021/07/02 05:19:04;;;;;;;7.57;6.87;;;17.60;99.90;;;;;;10536792;28;20224;-80
2021/07/02 05:24:07;;;;;;;8.87;8.07;;;17.70;99.90;;;;;;10531173;28;20711;-81
2021/07/02 05:29:09;;;;;;;7.87;7.27;;;17.70;99.90;;;;;;10529058;28;20614;-80
2021/07/02 05:34:12;;;;;;;6.80;6.30;;;17.80;99.90;;;;;;10538095;28;20227;-80
2021/07/02 05:39:15;;;;;;;8.37;7.57;;;17.90;99.90;;;;;;10546259;28;20239;-80
2021/07/02 05:44:17;;;;;;;7.93;7.13;;;18.00;99.90;;;;;;10561410;28;20224;-80
2021/07/02 05:49:19;;;;;;;8.07;7.27;;;18.10;99.90;;;;;;10549159;28;20599;-80
2021/07/02 05:54:23;;;;;;;7.23;6.53;;;18.30;99.90;;;;;;10569562;28;20242;-81
2021/07/02 05:59:25;;;;;;;8.13;7.53;;;18.20;99.90;;;;;;10572321;28;20275;-81
2021/07/02 06:04:27;;;;;;;9.30;7.63;;;18.10;99.90;;;;;;10551995;28;20224;-80
2021/07/02 06:09:32;;;;;;;8.20;7.40;;;18.00;99.90;;;;;;10542052;28;20207;-80
2021/07/02 06:14:35;;;;;;;7.80;7.10;;;17.90;99.90;;;;;;10543222;28;20230;-81
2021/07/02 06:19:37;;;;;;;8.83;7.93;;;18.00;99.90;;;;;;10558979;28;20700;-80
2021/07/02 06:24:40;;;;;;;8.30;7.60;;;18.00;99.90;;;;;;10559408;28;20232;-81
2021/07/02 06:29:42;;;;;;;9.40;7.57;;;18.00;99.90;;;;;;10544019;28;20204;-81
2021/07/02 06:34:44;;;;;;;7.80;7.20;;;18.20;99.90;;;;;;10560723;28;20232;-81
2021/07/02 06:39:48;;;;;;;9.97;7.97;;;18.30;99.90;;;;;;10565022;28;20231;-80
2021/07/02 06:44:50;;;;;;;7.70;7.00;;;18.40;99.90;;;;;;10570591;28;20937;-80
2021/07/02 06:49:52;;;;;;;7.90;7.20;;;18.60;99.90;;;;;;10570691;28;20200;-81
2021/07/02 06:54:56;;;;;;;8.70;8.00;;;18.90;99.90;;;;;;10564624;28;20220;-81
2021/07/02 07:00:02;;;;;;;7.20;6.60;;;19.20;99.90;;;;;;10550403;28;20231;-80
2021/07/02 07:05:05;;;;;;;8.00;7.33;;;19.50;99.90;;;;;;10567024;28;20219;-81
2021/07/02 07:10:10;;;;;;;6.63;6.03;;;19.80;99.90;;;;;;10540303;28;20226;-80
2021/07/02 07:15:13;;;;;;;7.40;6.70;;;20.20;99.90;;;;;;10559379;28;20779;-81
2021/07/02 07:20:15;;;;;;;8.00;7.30;;;20.70;99.90;;;;;;10544964;28;20227;-81
2021/07/02 07:25:21;;;;;;;6.70;6.20;;;21.10;99.90;;;;;;10547767;28;20228;-80
2021/07/02 07:30:23;;;;;;;6.63;6.13;;;21.00;99.90;;;;;;10541389;28;20203;-81
2021/07/02 07:35:28;;;;;;;6.53;6.00;;;21.30;99.90;;;;;;10554723;28;20236;-82
2021/07/02 07:40:32;;;;;;;6.33;5.73;;;21.60;99.90;;;;;;10564095;28;20661;-80
2021/07/02 07:45:34;;;;;;;6.60;6.10;;;21.60;99.90;;;;;;10560586;28;20220;-81
2021/07/02 07:50:43;;;;;;;6.37;5.87;;;21.40;99.90;;;;;;10552905;28;20188;-82
2021/07/02 07:55:48;;;;;;;6.97;6.37;;;21.30;99.90;;;;;;10558055;28;20292;-81
2021/07/02 08:00:51;;;;;;;6.43;5.93;;;21.40;99.90;;;;;;10569169;28;20219;-81
2021/07/02 08:05:53;;;;;;;5.80;5.30;;;21.60;99.90;;;;;;10569731;28;20220;-81
2021/07/02 08:10:56;;;;;;;7.03;6.47;;;22.40;99.90;;;;;;10569280;28;20188;-82
2021/07/02 08:15:59;;;;;;;5.27;4.87;;;23.20;97.40;;;;;;10562916;28;20267;-82
2021/07/02 08:21:01;;;;;;;5.60;5.10;;;23.80;96.70;;;;;;10549440;28;20243;-82
2021/07/02 08:26:05;;;;;;;5.60;5.20;;;24.80;95.40;;;;;;10569951;28;20220;-82
2021/07/02 08:31:07;;;;;;;5.10;4.70;;;25.30;92.70;;;;;;10563878;28;20200;-82
2021/07/02 08:36:09;;;;;;;5.70;5.10;;;25.50;91.30;;;;;;10559512;28;20227;-82
2021/07/02 08:41:14;;;;;;;5.67;5.27;;;26.00;88.80;;;;;;10562721;28;20231;-82
2021/07/02 08:46:20;;;;;;;4.50;4.10;;;26.50;85.70;;;;;;10543981;28;20262;-79
2021/07/02 08:51:25;;;;;;;5.57;5.07;;;26.20;84.10;;;;;;10538882;28;20211;-81
2021/07/02 08:56:28;;;;;;;5.90;5.30;;;25.60;82.70;;;;;;10547223;28;20220;-81
2021/07/02 09:01:41;;;;;;;4.97;4.60;;;25.10;84.20;;;;;;10549514;28;20228;-80
2021/07/02 09:06:44;;;;;;;5.53;5.13;;;25.50;85.00;;;;;;10539866;28;20231;-81
2021/07/02 09:11:47;;;;;;;5.20;4.80;;;25.50;81.50;;;;;;10543521;28;20196;-81
2021/07/02 09:16:49;;;;;;;9.60;5.67;;;25.30;82.20;;;;;;10542169;28;20665;-81
2021/07/02 09:21:52;;;;;;;6.47;5.97;;;24.80;82.90;;;;;;10550245;28;20253;-81
2021/07/02 09:26:55;;;;;;;8.60;5.20;;;24.30;84.20;;;;;;10542278;28;20216;-81
2021/07/02 09:31:59;;;;;;;4.93;4.53;;;24.70;84.60;;;;;;10536853;28;20294;-81
2021/07/02 09:37:20;;;;;;;5.30;4.90;;;25.60;80.40;;;;;;10531936;28;20238;-82
2021/07/02 09:42:25;;;;;;;10.40;4.53;;;26.90;75.40;;;;;;10520670;28;20223;-80
2021/07/02 09:47:29;;;;;;;4.80;4.33;;;28.20;70.50;;;;;;10521312;28;20228;-81
2021/07/02 09:52:31;;;;;;;5.50;5.10;;;28.40;69.00;;;;;;10531729;28;20276;-81
2021/07/02 09:57:35;;;;;;;5.87;5.37;;;27.60;69.90;;;;;;10508457;28;20196;-81
2021/07/02 10:02:37;;;;;;;7.10;5.83;;;26.80;72.50;;;;;;10509562;28;20220;-81
2021/07/02 10:07:39;;;;;;;6.23;5.70;;;26.80;70.50;;;;;;10527160;28;20207;-81
2021/07/02 10:12:43;;;;;;;6.57;6.07;;;26.20;73.30;;;;;;10529614;28;20216;-82
2021/07/02 10:17:45;;;;;;;5.97;5.47;;;28.00;70.80;;;;;;10563507;28;20212;-79
2021/07/02 10:22:48;;;;;;;6.47;5.97;;;28.70;64.40;;;;;;10563826;28;20220;-79
2021/07/02 10:27:53;;;;;;;7.33;6.63;;;28.10;66.90;;;;;;10549637;28;20204;-79
2021/07/02 10:32:58;;;;;;;6.33;5.17;;;27.70;65.20;;;;;;10563383;28;20216;-79
2021/07/02 10:38:01;;;;;;;5.60;5.20;;;26.80;63.90;;;;;;10544301;28;20691;-82
2021/07/02 10:43:12;;;;;;;5.70;5.30;;;26.10;64.80;;;;;;10565540;28;20259;-82
2021/07/02 10:48:14;;;;;;;6.97;6.40;;;25.60;67.00;;;;;;10567969;28;20196;-81
2021/07/02 10:53:28;;;;;;;6.57;6.07;;;25.30;67.60;;;;;;10568401;28;20558;-81
2021/07/02 10:58:53;;;;;;;5.50;5.10;;;24.90;67.30;;;;;;10542039;28;20568;-81
2021/07/02 11:04:34;;;;;;;5.67;5.27;;;24.70;68.90;;;;;;10570050;28;20228;-82
2021/07/02 11:09:57;;;;;;;6.50;5.97;;;24.50;67.80;;;;;;10568859;28;20195;-80
2021/07/02 11:15:15;;;;;;;6.27;5.70;;;24.50;69.50;;;;;;10564584;28;20228;-82
2021/07/02 11:20:31;;;;;;;6.07;5.67;;;24.50;68.00;;;;;;10552839;28;20243;-81
2021/07/02 11:25:42;;;;;;;6.17;5.67;;;24.40;68.60;;;;;;10553478;28;20227;-82
2021/07/02 11:30:47;;;;;;;5.80;5.30;;;24.30;69.00;;;;;;10582430;28;20212;-81
2021/07/02 11:36:08;;;;;;;6.50;6.00;;;24.20;67.30;;;;;;10555589;28;20582;-81
2021/07/02 11:41:21;;;;;;;6.93;5.90;;;24.20;69.90;;;;;;10568526;28;20227;-81
2021/07/02 11:46:23;;;;;;;5.80;5.20;;;24.20;68.80;;;;;;10563313;28;20232;-81
2021/07/02 11:51:29;;;;;;;6.50;6.00;;;24.10;70.60;;;;;;10565692;28;20226;-81
2021/07/02 11:56:33;;;;;;;6.20;5.70;;;23.90;68.40;;;;;;10562777;28;20231;-81
2021/07/02 12:01:38;;;;;;;5.50;5.10;;;23.80;71.00;;;;;;10562873;28;20223;-82
2021/07/02 12:06:45;;;;;;;6.30;5.80;;;23.70;71.00;;;;;;10561421;28;20598;-81
2021/07/02 12:11:51;;;;;;;5.73;5.27;;;23.70;72.50;;;;;;10563435;28;20249;-81
2021/07/02 12:16:54;;;;;;;5.80;5.40;;;23.70;71.40;;;;;;10550957;28;20232;-81
2021/07/02 12:22:00;;;;;;;6.03;5.53;;;23.50;69.30;;;;;;10555542;28;20223;-81
2021/07/02 12:27:05;;;;;;;5.93;5.43;;;23.50;71.20;;;;;;10565212;28;20302;-81
2021/07/02 12:32:09;;;;;;;6.37;5.83;;;23.30;69.60;;;;;;10563117;28;20207;-81
2021/07/02 12:37:15;;;;;;;6.73;5.57;;;23.30;70.10;;;;;;10558066;28;20232;-81
2021/07/02 12:42:18;;;;;;;6.50;5.90;;;23.30;71.40;;;;;;10550075;28;20246;-81
2021/07/02 12:47:22;;;;;;;7.00;6.50;;;23.30;72.80;;;;;;10563876;28;20195;-81
2021/07/02 12:58:01;;;;;;;6.40;5.90;;;23.10;71.50;;;;;;10544825;28;20204;-81
2021/07/02 13:03:05;;;;;;;6.40;5.80;;;23.00;72.50;;;;;;10546684;28;20255;-81
2021/07/02 13:08:10;;;;;;;6.87;6.27;;;23.00;73.10;;;;;;10533233;28;20303;-81
2021/07/02 13:13:15;;;;;;;5.67;5.27;;;23.00;69.30;;;;;;10535095;28;20572;-81
2021/07/02 13:18:19;;;;;;;5.20;4.80;;;23.10;71.20;;;;;;10549735;28;20200;-81
2021/07/02 13:23:24;;;;;;;6.03;5.57;;;23.30;74.70;;;;;;10556792;28;20723;-82
2021/07/02 13:28:26;;;;;;;7.00;6.40;;;23.40;72.10;;;;;;10542423;28;20271;-81
2021/07/02 13:33:28;;;;;;;6.23;5.70;;;23.30;72.40;;;;;;10537301;28;20262;-82
2021/07/02 13:38:32;;;;;;;6.63;6.10;;;23.30;70.90;;;;;;10530030;28;20231;-82
2021/07/02 13:43:34;;;;;;;6.70;6.10;;;23.10;72.10;;;;;;10524950;28;20611;-81
2021/07/02 13:48:36;;;;;;;6.20;5.60;;;23.00;75.30;;;;;;10534581;28;20446;-81
2021/07/02 13:53:39;;;;;;;9.13;5.83;;;22.90;73.00;;;;;;10538666;28;20596;-81
2021/07/02 13:58:41;;;;;;;7.00;6.37;;;22.80;73.50;;;;;;10544180;28;20581;-81
2021/07/02 14:03:44;;;;;;;6.40;5.73;;;22.80;73.40;;;;;;10537747;28;20662;-81
2021/07/02 14:08:48;;;;;;;6.67;6.17;;;22.80;73.20;;;;;;10557643;28;20233;-81
2021/07/02 14:13:50;;;;;;;6.60;6.10;;;22.80;76.40;;;;;;10533171;28;20288;-82
2021/07/02 14:18:55;;;;;;;7.13;6.43;;;22.90;72.90;;;;;;10536404;28;20214;-81
2021/07/02 14:23:59;;;;;;;8.17;7.37;;;22.90;74.90;;;;;;10541066;28;20244;-81
2021/07/02 14:29:01;;;;;;;6.77;6.17;;;22.90;76.40;;;;;;10532530;28;20253;-81
2021/07/02 14:34:04;;;;;;;6.10;5.70;;;22.80;78.50;;;;;;10536287;28;20255;-82
2021/07/02 14:39:07;;;;;;;6.67;6.17;;;22.70;74.90;;;;;;10535552;28;20199;-81
2021/07/02 14:44:09;;;;;;;6.57;5.97;;;22.90;74.40;;;;;;10535370;28;20236;-81
2021/07/02 14:49:12;;;;;;;5.67;5.10;;;23.00;76.80;;;;;;10545422;28;20214;-81
2021/07/02 14:54:17;;;;;;;6.43;5.83;;;23.20;78.00;;;;;;10554678;28;20230;-81
2021/07/02 14:59:19;;;;;;;6.77;6.17;;;23.30;75.70;;;;;;10541813;28;20214;-81
2021/07/02 15:04:21;;;;;;;6.40;5.90;;;23.30;74.60;;;;;;10551219;28;20234;-81
2021/07/02 15:09:25;;;;;;;6.83;6.23;;;23.30;77.10;;;;;;10540029;28;20675;-81
2021/07/02 15:14:27;;;;;;;5.93;5.43;;;23.40;76.40;;;;;;10533524;28;20566;-82
2021/07/02 15:19:29;;;;;;;7.30;6.70;;;23.50;75.70;;;;;;10511690;28;20250;-82
2021/07/02 15:24:33;;;;;;;5.97;5.47;;;23.40;75.40;;;;;;10517305;28;20231;-82
2021/07/02 15:30:13;;;;;;;7.20;6.50;;;23.30;76.10;;;;;;10541251;28;20204;-81
2021/07/02 15:35:16;;;;;;;6.40;5.90;;;23.10;79.50;;;;;;10524750;28;20240;-81
2021/07/02 15:40:19;;;;;;;7.10;6.50;;;22.90;78.60;;;;;;10507397;28;20307;-81
2021/07/02 15:45:21;;;;;;;6.50;5.90;;;23.00;76.80;;;;;;10541046;28;20227;-81
2021/07/02 15:50:24;;;;;;;6.70;6.10;;;23.10;75.80;;;;;;10542160;28;20203;-81
2021/07/02 15:55:27;;;;;;;6.30;5.80;;;23.10;78.20;;;;;;10540310;28;20733;-82
2021/07/02 16:00:30;;;;;;;7.47;5.93;;;23.20;75.90;;;;;;10532697;28;20224;-81
2021/07/02 16:05:32;;;;;;;6.93;6.43;;;23.20;78.40;;;;;;10541355;28;20226;-82
2021/07/02 16:10:36;;;;;;;5.80;5.30;;;23.10;75.70;;;;;;10534801;28;20676;-81
2021/07/02 16:15:38;;;;;;;6.80;6.30;;;23.10;78.50;;;;;;10535288;28;20256;-82
2021/07/02 16:20:42;;;;;;;5.83;5.43;;;23.10;78.60;;;;;;10539585;28;20302;-81
2021/07/02 16:25:46;;;;;;;6.77;6.10;;;23.00;77.40;;;;;;10540033;28;20223;-81
2021/07/02 16:30:48;;;;;;;6.30;5.80;;;22.80;78.50;;;;;;10531630;28;20640;-81
2021/07/02 16:35:50;;;;;;;7.20;6.60;;;22.70;79.40;;;;;;10533778;28;20255;-81
2021/07/02 16:40:54;;;;;;;6.00;5.50;;;22.70;80.10;;;;;;10529225;28;20248;-81
2021/07/02 16:45:56;;;;;;;6.43;5.90;;;22.80;80.50;;;;;;10536080;28;20228;-82
2021/07/02 16:50:58;;;;;;;7.47;6.87;;;22.80;80.20;;;;;;10524060;28;20200;-81
2021/07/02 16:56:01;;;;;;;6.53;6.00;;;22.70;81.00;;;;;;10525454;28;20339;-81
2021/07/02 17:01:04;;;;;;;6.40;5.90;;;22.60;80.60;;;;;;10526525;28;20582;-81
2021/07/02 17:06:08;;;;;;;6.17;5.67;;;22.50;80.10;;;;;;10551519;28;20279;-81
2021/07/02 17:11:11;;;;;;;6.00;5.23;;;22.40;79.40;;;;;;10550910;28;20195;-81
2021/07/02 17:16:13;;;;;;;6.30;5.67;;;22.30;79.40;;;;;;10528372;28;20247;-82
2021/07/02 17:21:17;;;;;;;6.30;5.33;;;22.30;79.40;;;;;;10545544;28;20227;-82
2021/07/02 17:26:24;;;;;;;5.97;5.03;;;22.20;77.30;;;;;;10548250;28;20231;-82
2021/07/02 17:31:26;;;;;;;5.37;4.97;;;22.20;80.60;;;;;;10548133;28;20654;-80
2021/07/02 17:36:29;;;;;;;6.77;6.07;;;22.10;80.20;;;;;;10541096;22;20699;-77
2021/07/02 17:41:34;;;;;;;6.03;5.50;;;22.10;78.50;;;;;;10517363;28;20267;-79
2021/07/02 17:46:37;;;;;;;6.67;6.07;;;22.10;81.40;;;;;;10531760;28;20216;-78
2021/07/02 17:51:39;;;;;;;6.80;6.30;;;22.00;80.70;;;;;;10533569;28;20291;-78
2021/07/02 17:56:43;;;;;;;8.30;7.60;;;22.00;78.30;;;;;;10529380;28;20231;-79
2021/07/02 18:01:45;;;;;;;6.60;6.10;;;22.00;78.80;;;;;;10526669;28;20220;-79
2021/07/02 18:06:47;;;;;;;6.40;5.90;;;21.90;83.50;;;;;;10530164;28;20219;-79
2021/07/02 18:11:55;;;;;;;5.87;5.33;;;21.90;78.80;;;;;;10529496;28;20200;-79
2021/07/02 18:16:57;;;;;;;5.47;5.07;;;21.80;80.60;;;;;;10536087;28;20324;-79
2021/07/02 18:22:00;;;;;;;5.73;5.33;;;21.80;85.70;;;;;;10529978;28;20311;-79
2021/07/02 18:27:06;;;;;;;6.03;5.53;;;21.70;86.70;;;;;;10538495;28;20228;-80
2021/07/02 18:32:09;;;;;;;6.90;6.30;;;21.60;86.60;;;;;;10536578;28;20211;-79
2021/07/02 18:37:11;;;;;;;8.20;7.50;;;21.60;90.80;;;;;;10517039;28;20616;-80
2021/07/02 18:42:14;;;;;;;7.50;6.90;;;21.50;91.90;;;;;;10523660;28;20216;-79
2021/07/02 18:47:17;;;;;;;7.20;6.50;;;21.40;89.60;;;;;;10497233;28;20260;-79
2021/07/02 18:52:19;;;;;;;7.90;7.20;;;21.30;89.60;;;;;;10529570;28;20202;-79
2021/07/02 18:57:22;;;;;;;9.30;6.40;;;21.30;88.90;;;;;;10543699;28;20223;-78
2021/07/02 19:02:25;;;;;;;6.00;5.60;;;21.20;90.30;;;;;;10534462;28;20276;-79
2021/07/02 19:07:27;;;;;;;7.03;6.47;;;21.00;90.50;;;;;;10534639;28;20364;-79
2021/07/02 19:12:31;;;;;;;6.80;6.20;;;20.80;91.10;;;;;;10521920;28;20249;-79
2021/07/02 19:17:35;;;;;;;6.87;6.27;;;20.60;91.40;;;;;;10530491;28;20235;-79
2021/07/02 19:22:38;;;;;;;6.87;6.27;;;20.50;91.50;;;;;;10540422;28;20228;-80
2021/07/02 19:27:42;;;;;;;7.37;6.77;;;20.30;91.30;;;;;;10528353;28;20210;-79
2021/07/02 19:32:44;;;;;;;7.43;6.83;;;20.20;91.70;;;;;;10539565;28;20200;-79
2021/07/02 19:37:46;;;;;;;8.00;7.23;;;20.10;91.70;;;;;;10535906;28;20226;-78
2021/07/02 19:42:50;;;;;;;7.37;6.13;;;19.90;92.10;;;;;;10533926;28;20307;-79
2021/07/02 19:47:55;;;;;;;7.90;7.27;;;19.90;91.70;;;;;;10532662;28;20234;-79
2021/07/02 19:52:57;;;;;;;8.00;7.40;;;19.70;92.10;;;;;;10535020;28;20262;-79
2021/07/02 19:58:00;;;;;;;7.93;7.23;;;19.60;92.70;;;;;;10533101;28;20219;-79
2021/07/02 20:03:02;;;;;;;9.90;7.40;;;19.60;93.00;;;;;;10533481;28;20259;-79
2021/07/02 20:08:05;;;;;;;8.93;7.97;;;19.50;93.60;;;;;;10530665;28;20647;-79
2021/07/02 20:13:09;;;;;;;8.30;7.60;;;19.40;93.60;;;;;;10531849;28;20219;-79
2021/07/02 20:18:11;;;;;;;8.83;8.13;;;19.40;94.00;;;;;;10530485;28;20235;-79
2021/07/02 20:23:14;;;;;;;8.80;8.10;;;19.50;94.70;;;;;;10532419;28;20248;-80
2021/07/02 20:28:18;;;;;;;8.30;7.60;;;19.40;94.60;;;;;;10538779;28;20192;-79
2021/07/02 20:33:20;;;;;;;8.80;8.00;;;19.40;94.20;;;;;;10536968;28;20215;-79
2021/07/02 20:38:23;;;;;;;9.10;8.20;;;19.30;94.70;;;;;;10537999;28;20188;-79
2021/07/02 20:43:27;;;;;;;8.43;7.37;;;19.30;95.20;;;;;;10535096;28;20448;-79
2021/07/02 20:48:29;;;;;;;8.70;7.67;;;19.30;95.10;;;;;;10533727;28;20286;-78
2021/07/02 20:53:31;;;;;;;8.77;7.50;;;19.20;94.70;;;;;;10541971;28;20224;-78
2021/07/02 20:58:34;;;;;;;9.03;8.20;;;19.20;95.50;;;;;;10539014;28;20196;-79
2021/07/02 21:03:37;;;;;;;8.63;7.93;;;19.10;95.20;;;;;;10539146;28;20363;-78
2021/07/02 21:08:39;;;;;;;8.70;7.90;;;19.10;94.80;;;;;;10539175;28;20253;-78
2021/07/02 21:13:43;;;;;;;8.47;7.77;;;19.00;95.60;;;;;;10533926;28;20227;-78
2021/07/02 21:18:45;;;;;;;8.90;7.97;;;18.90;95.50;;;;;;10536434;28;20248;-78
2021/07/02 21:23:47;;;;;;;8.07;7.37;;;18.90;96.30;;;;;;10530049;28;20730;-78
2021/07/02 21:28:51;;;;;;;9.77;7.63;;;18.80;96.30;;;;;;10535635;28;20207;-79
2021/07/02 21:33:53;;;;;;;8.77;7.97;;;18.80;96.60;;;;;;10530563;28;20283;-80
2021/07/02 21:38:55;;;;;;;8.00;7.27;;;18.80;97.30;;;;;;10527443;28;20257;-79
2021/07/02 21:43:59;;;;;;;8.07;7.40;;;18.80;96.70;;;;;;10512611;28;20242;-80
2021/07/02 21:49:01;;;;;;;8.83;7.90;;;18.70;96.50;;;;;;10524418;28;20241;-78
2021/07/02 21:54:03;;;;;;;8.70;8.10;;;18.60;97.10;;;;;;10533605;28;20284;-79
2021/07/02 21:59:11;;;;;;;8.33;7.53;;;18.60;96.80;;;;;;10535575;28;20204;-79
2021/07/02 22:04:13;;;;;;;8.43;7.63;;;18.60;97.10;;;;;;10535412;28;20257;-77
2021/07/02 22:09:20;;;;;;;8.97;8.07;;;18.60;97.90;;;;;;10537168;28;20200;-78
2021/07/02 22:14:25;;;;;;;8.67;7.97;;;18.50;97.90;;;;;;10545554;28;20299;-80
2021/07/02 22:19:27;;;;;;;9.13;8.40;;;18.50;98.10;;;;;;10531801;28;20660;-80
2021/07/02 22:24:29;;;;;;;8.97;8.17;;;18.50;97.80;;;;;;10551788;28;20219;-79
2021/07/02 22:29:33;;;;;;;9.83;8.83;;;18.40;98.20;;;;;;10537110;28;20205;-79
2021/07/02 22:34:35;;;;;;;9.47;8.67;;;18.40;99.00;;;;;;10517169;28;20227;-79
2021/07/02 22:39:37;;;;;;;8.93;8.10;;;18.40;98.70;;;;;;10514424;28;20227;-78
2021/07/02 22:44:40;;;;;;;9.03;8.23;;;18.30;98.90;;;;;;10534068;28;20283;-78
2021/07/02 22:49:43;;;;;;;9.50;8.57;;;18.30;98.80;;;;;;10554336;28;20198;-80
2021/07/02 22:54:45;;;;;;;8.33;7.63;;;18.20;98.70;;;;;;10529491;28;20243;-80
2021/07/02 22:59:48;;;;;;;9.27;8.37;;;18.20;98.40;;;;;;10529467;28;20234;-77
2021/07/02 23:04:50;;;;;;;10.23;8.87;;;18.20;98.70;;;;;;10533825;28;20232;-79
2021/07/02 23:09:53;;;;;;;9.83;8.90;;;18.10;99.10;;;;;;10540032;28;20295;-78
2021/07/02 23:14:56;;;;;;;9.37;8.40;;;18.10;99.40;;;;;;10533935;28;20307;-79
2021/07/02 23:19:58;;;;;;;9.17;8.47;;;18.10;99.60;;;;;;10510024;28;20566;-79
2021/07/02 23:25:00;;;;;;;8.40;7.77;;;18.00;99.90;;;;;;10504827;28;20302;-79
2021/07/02 23:30:04;;;;;;;9.33;8.07;;;18.00;99.80;;;;;;10508028;28;20250;-79
2021/07/02 23:35:08;;;;;;;8.73;8.03;;;18.00;99.20;;;;;;10518678;22;20711;-80
2021/07/02 23:40:11;;;;;;;8.70;8.00;;;18.00;99.70;;;;;;10499581;28;20196;-80
2021/07/02 23:45:14;;;;;;;10.80;8.50;;;17.90;99.90;;;;;;10514508;28;20224;-81
2021/07/02 23:50:17;;;;;;;10.17;8.63;;;17.80;99.90;;;;;;10487178;28;20721;-81
2021/07/02 23:55:19;;;;;;;9.43;8.60;;;17.80;99.90;;;;;;10477656;28;20794;-79
